sensor_id;sensor_type;location;lat;lon;timestamp;temperature;humidity
68801;SHT31;55784;50.734;7.086;2023-09-19T00:00:36;16.24;86.01
68801;SHT31;55784;50.734;7.086;2023-09-19T00:03:02;16.21;85.81
68801;SHT31;55784;50.734;7.086;2023-09-19T00:05:28;16.21;85.92
68801;SHT31;55784;50.734;7.086;2023-09-19T00:07:56;16.20;85.91
68801;SHT31;55784;50.734;7.086;2023-09-19T00:10:26;16.20;85.88
68801;SHT31;55784;50.734;7.086;2023-09-19T00:12:53;16.17;85.86
68801;SHT31;55784;50.734;7.086;2023-09-19T00:15:20;16.14;85.90
68801;SHT31;55784;50.734;7.086;2023-09-19T00:17:46;16.13;85.53
68801;SHT31;55784;50.734;7.086;2023-09-19T00:20:13;16.10;85.35
68801;SHT31;55784;50.734;7.086;2023-09-19T00:22:43;16.13;85.13
68801;SHT31;55784;50.734;7.086;2023-09-19T00:25:08;16.13;85.31
68801;SHT31;55784;50.734;7.086;2023-09-19T00:27:35;16.18;85.40
68801;SHT31;55784;50.734;7.086;2023-09-19T00:30:04;16.18;85.09
68801;SHT31;55784;50.734;7.086;2023-09-19T00:32:30;16.24;84.99
68801;SHT31;55784;50.734;7.086;2023-09-19T00:34:55;16.28;84.31
68801;SHT31;55784;50.734;7.086;2023-09-19T00:37:21;16.22;84.47
68801;SHT31;55784;50.734;7.086;2023-09-19T00:39:46;16.24;84.51
68801;SHT31;55784;50.734;7.086;2023-09-19T00:42:18;16.17;84.67
68801;SHT31;55784;50.734;7.086;2023-09-19T00:44:44;16.13;85.04
68801;SHT31;55784;50.734;7.086;2023-09-19T00:47:09;16.08;85.32
68801;SHT31;55784;50.734;7.086;2023-09-19T00:49:40;16.07;85.43
68801;SHT31;55784;50.734;7.086;2023-09-19T00:52:06;16.10;85.34
68801;SHT31;55784;50.734;7.086;2023-09-19T00:54:33;16.06;85.57
68801;SHT31;55784;50.734;7.086;2023-09-19T00:57:00;16.03;85.51
68801;SHT31;55784;50.734;7.086;2023-09-19T00:59:27;16.00;85.66
68801;SHT31;55784;50.734;7.086;2023-09-19T01:01:53;16.01;85.72
68801;SHT31;55784;50.734;7.086;2023-09-19T01:04:19;15.98;86.28
68801;SHT31;55784;50.734;7.086;2023-09-19T01:06:45;16.00;86.36
68801;SHT31;55784;50.734;7.086;2023-09-19T01:09:11;16.04;85.95
68801;SHT31;55784;50.734;7.086;2023-09-19T01:11:43;16.20;86.18
68801;SHT31;55784;50.734;7.086;2023-09-19T01:17:27;16.37;85.39
68801;SHT31;55784;50.734;7.086;2023-09-19T01:28:48;16.67;85.31
68801;SHT31;55784;50.734;7.086;2023-09-19T01:31:21;16.72;84.87
68801;SHT31;55784;50.734;7.086;2023-09-19T01:33:56;16.72;84.37
68801;SHT31;55784;50.734;7.086;2023-09-19T01:36:26;16.82;83.88
68801;SHT31;55784;50.734;7.086;2023-09-19T01:38:52;16.81;83.69
68801;SHT31;55784;50.734;7.086;2023-09-19T01:41:33;16.86;83.23
68801;SHT31;55784;50.734;7.086;2023-09-19T01:44:03;16.86;82.95
68801;SHT31;55784;50.734;7.086;2023-09-19T01:46:38;16.85;82.83
68801;SHT31;55784;50.734;7.086;2023-09-19T01:49:14;16.91;82.53
68801;SHT31;55784;50.734;7.086;2023-09-19T01:52:00;16.89;82.03
68801;SHT31;55784;50.734;7.086;2023-09-19T01:54:33;16.86;81.88
68801;SHT31;55784;50.734;7.086;2023-09-19T01:57:08;16.88;81.66
68801;SHT31;55784;50.734;7.086;2023-09-19T01:59:45;16.89;81.88
68801;SHT31;55784;50.734;7.086;2023-09-19T02:02:14;16.83;81.87
68801;SHT31;55784;50.734;7.086;2023-09-19T02:04:42;16.86;81.19
68801;SHT31;55784;50.734;7.086;2023-09-19T02:07:08;16.88;81.15
68801;SHT31;55784;50.734;7.086;2023-09-19T02:09:33;16.83;80.65
68801;SHT31;55784;50.734;7.086;2023-09-19T02:12:01;16.79;80.21
68801;SHT31;55784;50.734;7.086;2023-09-19T02:14:27;16.73;80.69
68801;SHT31;55784;50.734;7.086;2023-09-19T02:16:52;16.67;80.99
68801;SHT31;55784;50.734;7.086;2023-09-19T02:19:18;16.55;81.01
68801;SHT31;55784;50.734;7.086;2023-09-19T02:21:46;16.49;80.58
68801;SHT31;55784;50.734;7.086;2023-09-19T02:24:11;16.41;80.48
68801;SHT31;55784;50.734;7.086;2023-09-19T02:26:37;16.37;80.21
68801;SHT31;55784;50.734;7.086;2023-09-19T02:29:03;16.31;80.59
68801;SHT31;55784;50.734;7.086;2023-09-19T02:31:30;16.24;80.72
68801;SHT31;55784;50.734;7.086;2023-09-19T02:33:56;16.18;80.68
68801;SHT31;55784;50.734;7.086;2023-09-19T02:36:21;16.16;80.81
68801;SHT31;55784;50.734;7.086;2023-09-19T02:38:48;16.07;81.23
68801;SHT31;55784;50.734;7.086;2023-09-19T02:41:14;16.04;81.26
68801;SHT31;55784;50.734;7.086;2023-09-19T02:43:39;16.03;81.49
68801;SHT31;55784;50.734;7.086;2023-09-19T02:46:04;16.03;81.69
68801;SHT31;55784;50.734;7.086;2023-09-19T02:48:30;15.96;82.08
68801;SHT31;55784;50.734;7.086;2023-09-19T02:50:57;15.96;82.05
68801;SHT31;55784;50.734;7.086;2023-09-19T02:53:22;15.90;82.31
68801;SHT31;55784;50.734;7.086;2023-09-19T02:55:49;15.85;82.92
68801;SHT31;55784;50.734;7.086;2023-09-19T02:58:14;15.77;83.11
68801;SHT31;55784;50.734;7.086;2023-09-19T03:00:40;15.73;83.34
68801;SHT31;55784;50.734;7.086;2023-09-19T03:03:07;15.71;84.12
68801;SHT31;55784;50.734;7.086;2023-09-19T03:05:33;15.67;84.35
68801;SHT31;55784;50.734;7.086;2023-09-19T03:07:59;15.65;84.53
68801;SHT31;55784;50.734;7.086;2023-09-19T03:10:27;15.59;84.56
68801;SHT31;55784;50.734;7.086;2023-09-19T03:12:53;15.56;84.70
68801;SHT31;55784;50.734;7.086;2023-09-19T03:15:18;15.52;84.75
68801;SHT31;55784;50.734;7.086;2023-09-19T03:17:45;15.49;84.94
68801;SHT31;55784;50.734;7.086;2023-09-19T03:20:11;15.45;84.87
68801;SHT31;55784;50.734;7.086;2023-09-19T03:22:38;15.43;85.38
68801;SHT31;55784;50.734;7.086;2023-09-19T03:25:05;15.42;85.27
68801;SHT31;55784;50.734;7.086;2023-09-19T03:27:35;15.35;85.53
68801;SHT31;55784;50.734;7.086;2023-09-19T03:30:01;15.36;85.77
68801;SHT31;55784;50.734;7.086;2023-09-19T03:32:30;15.33;85.90
68801;SHT31;55784;50.734;7.086;2023-09-19T03:34:56;15.32;86.12
68801;SHT31;55784;50.734;7.086;2023-09-19T03:37:21;15.28;86.29
68801;SHT31;55784;50.734;7.086;2023-09-19T03:39:46;15.26;86.38
68801;SHT31;55784;50.734;7.086;2023-09-19T03:42:12;15.24;86.07
68801;SHT31;55784;50.734;7.086;2023-09-19T03:44:37;15.19;86.31
68801;SHT31;55784;50.734;7.086;2023-09-19T03:47:02;15.14;86.57
68801;SHT31;55784;50.734;7.086;2023-09-19T03:49:30;15.12;86.91
68801;SHT31;55784;50.734;7.086;2023-09-19T03:51:55;15.08;87.28
68801;SHT31;55784;50.734;7.086;2023-09-19T03:54:21;15.06;87.55
68801;SHT31;55784;50.734;7.086;2023-09-19T03:56:46;15.05;87.30
68801;SHT31;55784;50.734;7.086;2023-09-19T03:59:12;15.04;87.13
68801;SHT31;55784;50.734;7.086;2023-09-19T04:01:37;15.02;87.21
68801;SHT31;55784;50.734;7.086;2023-09-19T04:04:03;14.99;87.67
68801;SHT31;55784;50.734;7.086;2023-09-19T04:06:36;14.98;87.36
68801;SHT31;55784;50.734;7.086;2023-09-19T04:09:02;14.98;87.17
68801;SHT31;55784;50.734;7.086;2023-09-19T04:11:29;15.01;86.95
68801;SHT31;55784;50.734;7.086;2023-09-19T04:13:54;14.99;86.63
68801;SHT31;55784;50.734;7.086;2023-09-19T04:16:19;14.98;86.58
68801;SHT31;55784;50.734;7.086;2023-09-19T04:18:45;14.98;86.29
68801;SHT31;55784;50.734;7.086;2023-09-19T04:21:10;15.02;85.94
68801;SHT31;55784;50.734;7.086;2023-09-19T04:23:36;15.05;85.78
68801;SHT31;55784;50.734;7.086;2023-09-19T04:26:01;15.01;85.69
68801;SHT31;55784;50.734;7.086;2023-09-19T04:28:28;15.04;85.45
68801;SHT31;55784;50.734;7.086;2023-09-19T04:30:54;15.05;85.28
68801;SHT31;55784;50.734;7.086;2023-09-19T04:33:20;15.09;85.16
68801;SHT31;55784;50.734;7.086;2023-09-19T04:35:49;15.06;85.04
68801;SHT31;55784;50.734;7.086;2023-09-19T04:38:14;15.04;85.03
68801;SHT31;55784;50.734;7.086;2023-09-19T04:40:40;14.98;85.19
68801;SHT31;55784;50.734;7.086;2023-09-19T04:43:05;14.98;85.21
68801;SHT31;55784;50.734;7.086;2023-09-19T04:45:31;14.94;85.47
68801;SHT31;55784;50.734;7.086;2023-09-19T04:47:56;14.84;85.59
68801;SHT31;55784;50.734;7.086;2023-09-19T04:50:22;14.84;85.67
68801;SHT31;55784;50.734;7.086;2023-09-19T04:52:51;14.82;85.68
68801;SHT31;55784;50.734;7.086;2023-09-19T04:55:17;14.78;85.81
68801;SHT31;55784;50.734;7.086;2023-09-19T04:57:47;14.78;85.69
68801;SHT31;55784;50.734;7.086;2023-09-19T05:00:17;14.75;85.75
68801;SHT31;55784;50.734;7.086;2023-09-19T05:02:48;14.72;85.89
68801;SHT31;55784;50.734;7.086;2023-09-19T05:05:14;14.72;85.81
68801;SHT31;55784;50.734;7.086;2023-09-19T05:07:41;14.72;85.87
68801;SHT31;55784;50.734;7.086;2023-09-19T05:10:07;14.68;85.74
68801;SHT31;55784;50.734;7.086;2023-09-19T05:12:34;14.64;85.83
68801;SHT31;55784;50.734;7.086;2023-09-19T05:15:00;14.60;85.94
68801;SHT31;55784;50.734;7.086;2023-09-19T05:17:26;14.56;85.85
68801;SHT31;55784;50.734;7.086;2023-09-19T05:19:52;14.56;85.83
68801;SHT31;55784;50.734;7.086;2023-09-19T05:22:18;14.57;85.85
68801;SHT31;55784;50.734;7.086;2023-09-19T05:24:43;14.57;85.81
68801;SHT31;55784;50.734;7.086;2023-09-19T05:27:10;14.57;85.74
68801;SHT31;55784;50.734;7.086;2023-09-19T05:29:35;14.57;85.62
68801;SHT31;55784;50.734;7.086;2023-09-19T05:32:01;14.59;85.62
68801;SHT31;55784;50.734;7.086;2023-09-19T05:34:26;14.59;85.56
68801;SHT31;55784;50.734;7.086;2023-09-19T05:36:55;14.60;85.46
68801;SHT31;55784;50.734;7.086;2023-09-19T05:39:20;14.64;85.12
68801;SHT31;55784;50.734;7.086;2023-09-19T05:41:45;14.67;85.07
68801;SHT31;55784;50.734;7.086;2023-09-19T05:44:13;14.71;84.84
68801;SHT31;55784;50.734;7.086;2023-09-19T05:46:39;14.72;84.76
68801;SHT31;55784;50.734;7.086;2023-09-19T05:49:04;14.75;84.76
68801;SHT31;55784;50.734;7.086;2023-09-19T05:51:30;14.81;84.61
68801;SHT31;55784;50.734;7.086;2023-09-19T05:53:55;14.87;84.56
68801;SHT31;55784;50.734;7.086;2023-09-19T05:56:21;14.91;84.11
68801;SHT31;55784;50.734;7.086;2023-09-19T05:58:47;14.98;84.10
68801;SHT31;55784;50.734;7.086;2023-09-19T06:01:12;15.02;84.04
68801;SHT31;55784;50.734;7.086;2023-09-19T06:03:38;15.08;83.92
68801;SHT31;55784;50.734;7.086;2023-09-19T06:06:03;15.11;83.83
68801;SHT31;55784;50.734;7.086;2023-09-19T06:08:31;15.18;83.68
68801;SHT31;55784;50.734;7.086;2023-09-19T06:10:57;15.21;83.34
68801;SHT31;55784;50.734;7.086;2023-09-19T06:13:22;15.26;83.08
68801;SHT31;55784;50.734;7.086;2023-09-19T06:15:48;15.31;82.68
68801;SHT31;55784;50.734;7.086;2023-09-19T06:18:14;15.39;82.52
68801;SHT31;55784;50.734;7.086;2023-09-19T06:20:45;15.46;82.04
68801;SHT31;55784;50.734;7.086;2023-09-19T06:23:10;15.53;82.10
68801;SHT31;55784;50.734;7.086;2023-09-19T06:25:36;15.63;81.55
68801;SHT31;55784;50.734;7.086;2023-09-19T06:28:01;15.67;81.40
68801;SHT31;55784;50.734;7.086;2023-09-19T06:30:30;15.74;81.28
68801;SHT31;55784;50.734;7.086;2023-09-19T06:32:57;15.80;81.01
68801;SHT31;55784;50.734;7.086;2023-09-19T06:35:22;15.87;80.51
68801;SHT31;55784;50.734;7.086;2023-09-19T06:37:48;15.96;80.47
68801;SHT31;55784;50.734;7.086;2023-09-19T06:40:14;15.96;80.53
68801;SHT31;55784;50.734;7.086;2023-09-19T06:42:44;16.04;80.02
68801;SHT31;55784;50.734;7.086;2023-09-19T06:45:13;16.10;79.88
68801;SHT31;55784;50.734;7.086;2023-09-19T06:47:45;16.17;79.46
68801;SHT31;55784;50.734;7.086;2023-09-19T06:50:14;16.27;79.08
68801;SHT31;55784;50.734;7.086;2023-09-19T06:52:41;16.34;79.03
68801;SHT31;55784;50.734;7.086;2023-09-19T06:55:06;16.48;78.55
68801;SHT31;55784;50.734;7.086;2023-09-19T06:57:32;16.57;77.86
68801;SHT31;55784;50.734;7.086;2023-09-19T06:59:57;16.65;77.26
68801;SHT31;55784;50.734;7.086;2023-09-19T07:02:23;16.78;77.41
68801;SHT31;55784;50.734;7.086;2023-09-19T07:04:48;16.91;76.73
68801;SHT31;55784;50.734;7.086;2023-09-19T07:07:15;17.03;76.52
68801;SHT31;55784;50.734;7.086;2023-09-19T07:09:40;17.13;76.21
68801;SHT31;55784;50.734;7.086;2023-09-19T07:12:07;17.26;75.81
68801;SHT31;55784;50.734;7.086;2023-09-19T07:14:32;17.34;75.43
68801;SHT31;55784;50.734;7.086;2023-09-19T07:16:58;17.43;75.02
68801;SHT31;55784;50.734;7.086;2023-09-19T07:19:25;17.53;75.02
68801;SHT31;55784;50.734;7.086;2023-09-19T07:21:53;17.47;74.53
68801;SHT31;55784;50.734;7.086;2023-09-19T07:24:19;17.49;74.49
68801;SHT31;55784;50.734;7.086;2023-09-19T07:26:47;17.60;74.60
68801;SHT31;55784;50.734;7.086;2023-09-19T07:29:12;17.71;74.33
68801;SHT31;55784;50.734;7.086;2023-09-19T07:31:38;17.77;73.87
68801;SHT31;55784;50.734;7.086;2023-09-19T07:34:03;17.80;74.05
68801;SHT31;55784;50.734;7.086;2023-09-19T07:36:29;17.90;73.89
68801;SHT31;55784;50.734;7.086;2023-09-19T07:38:54;18.02;73.59
68801;SHT31;55784;50.734;7.086;2023-09-19T07:41:20;17.97;73.41
68801;SHT31;55784;50.734;7.086;2023-09-19T07:43:46;18.15;73.30
68801;SHT31;55784;50.734;7.086;2023-09-19T07:46:11;18.15;72.98
68801;SHT31;55784;50.734;7.086;2023-09-19T07:48:37;18.12;73.01
68801;SHT31;55784;50.734;7.086;2023-09-19T07:51:05;18.28;73.06
68801;SHT31;55784;50.734;7.086;2023-09-19T07:53:31;18.38;72.79
68801;SHT31;55784;50.734;7.086;2023-09-19T07:56:07;18.56;72.43
68801;SHT31;55784;50.734;7.086;2023-09-19T07:58:33;18.68;71.53
68801;SHT31;55784;50.734;7.086;2023-09-19T08:01:06;18.69;70.94
68801;SHT31;55784;50.734;7.086;2023-09-19T08:03:33;18.60;70.79
68801;SHT31;55784;50.734;7.086;2023-09-19T08:05:58;18.70;70.44
68801;SHT31;55784;50.734;7.086;2023-09-19T08:08:24;18.68;70.32
68801;SHT31;55784;50.734;7.086;2023-09-19T08:10:55;18.69;70.35
68801;SHT31;55784;50.734;7.086;2023-09-19T08:13:25;18.92;70.39
68801;SHT31;55784;50.734;7.086;2023-09-19T08:15:51;18.89;69.74
68801;SHT31;55784;50.734;7.086;2023-09-19T08:18:17;19.02;69.65
68801;SHT31;55784;50.734;7.086;2023-09-19T08:20:43;19.03;69.02
68801;SHT31;55784;50.734;7.086;2023-09-19T08:23:17;19.00;68.51
68801;SHT31;55784;50.734;7.086;2023-09-19T08:25:46;19.16;68.72
68801;SHT31;55784;50.734;7.086;2023-09-19T08:28:11;19.17;68.76
68801;SHT31;55784;50.734;7.086;2023-09-19T08:30:39;19.21;68.89
68801;SHT31;55784;50.734;7.086;2023-09-19T08:33:06;19.37;68.48
68801;SHT31;55784;50.734;7.086;2023-09-19T08:35:32;19.35;67.45
68801;SHT31;55784;50.734;7.086;2023-09-19T08:37:58;19.37;67.47
68801;SHT31;55784;50.734;7.086;2023-09-19T08:40:25;19.61;67.29
68801;SHT31;55784;50.734;7.086;2023-09-19T08:42:56;19.61;66.80
68801;SHT31;55784;50.734;7.086;2023-09-19T08:45:22;19.71;66.69
68801;SHT31;55784;50.734;7.086;2023-09-19T08:48:27;19.78;66.73
68801;SHT31;55784;50.734;7.086;2023-09-19T08:53:41;19.86;65.75
68801;SHT31;55784;50.734;7.086;2023-09-19T08:56:12;19.95;65.45
68801;SHT31;55784;50.734;7.086;2023-09-19T08:58:48;19.99;65.48
68801;SHT31;55784;50.734;7.086;2023-09-19T09:01:15;20.09;65.10
68801;SHT31;55784;50.734;7.086;2023-09-19T09:03:42;20.01;65.36
68801;SHT31;55784;50.734;7.086;2023-09-19T09:06:13;20.13;64.81
68801;SHT31;55784;50.734;7.086;2023-09-19T09:08:40;20.06;64.52
68801;SHT31;55784;50.734;7.086;2023-09-19T09:11:07;20.09;64.64
68801;SHT31;55784;50.734;7.086;2023-09-19T09:13:35;20.02;64.50
68801;SHT31;55784;50.734;7.086;2023-09-19T09:16:01;20.06;64.55
68801;SHT31;55784;50.734;7.086;2023-09-19T09:18:28;20.04;64.42
68801;SHT31;55784;50.734;7.086;2023-09-19T09:20:55;20.05;64.26
68801;SHT31;55784;50.734;7.086;2023-09-19T09:23:21;20.02;64.37
68801;SHT31;55784;50.734;7.086;2023-09-19T09:25:50;20.06;64.05
68801;SHT31;55784;50.734;7.086;2023-09-19T09:28:21;20.23;64.54
68801;SHT31;55784;50.734;7.086;2023-09-19T09:30:47;20.28;64.05
68801;SHT31;55784;50.734;7.086;2023-09-19T09:33:13;20.40;63.93
68801;SHT31;55784;50.734;7.086;2023-09-19T09:35:52;20.30;64.05
68801;SHT31;55784;50.734;7.086;2023-09-19T09:38:19;20.36;63.09
68801;SHT31;55784;50.734;7.086;2023-09-19T09:40:52;20.37;63.04
68801;SHT31;55784;50.734;7.086;2023-09-19T09:43:30;20.32;63.10
68801;SHT31;55784;50.734;7.086;2023-09-19T09:46:13;20.23;62.92
68801;SHT31;55784;50.734;7.086;2023-09-19T09:49:01;20.37;63.20
68801;SHT31;55784;50.734;7.086;2023-09-19T09:52:05;20.52;62.34
68801;SHT31;55784;50.734;7.086;2023-09-19T09:54:35;20.72;61.79
68801;SHT31;55784;50.734;7.086;2023-09-19T09:57:10;21.06;61.27
68801;SHT31;55784;50.734;7.086;2023-09-19T09:59:52;21.18;60.16
68801;SHT31;55784;50.734;7.086;2023-09-19T10:02:28;21.14;59.87
68801;SHT31;55784;50.734;7.086;2023-09-19T10:04:56;21.21;59.76
68801;SHT31;55784;50.734;7.086;2023-09-19T10:07:25;21.14;60.08
68801;SHT31;55784;50.734;7.086;2023-09-19T10:09:58;21.27;59.94
68801;SHT31;55784;50.734;7.086;2023-09-19T10:12:31;21.32;59.33
68801;SHT31;55784;50.734;7.086;2023-09-19T10:14:57;21.49;59.28
68801;SHT31;55784;50.734;7.086;2023-09-19T10:17:28;21.59;58.36
68801;SHT31;55784;50.734;7.086;2023-09-19T10:19:56;21.69;58.75
68801;SHT31;55784;50.734;7.086;2023-09-19T10:22:28;22.06;57.88
68801;SHT31;55784;50.734;7.086;2023-09-19T10:24:57;22.32;57.24
68801;SHT31;55784;50.734;7.086;2023-09-19T10:27:26;22.20;57.37
68801;SHT31;55784;50.734;7.086;2023-09-19T10:29:52;22.08;57.30
68801;SHT31;55784;50.734;7.086;2023-09-19T10:32:22;22.03;57.27
68801;SHT31;55784;50.734;7.086;2023-09-19T10:34:49;21.90;57.61
68801;SHT31;55784;50.734;7.086;2023-09-19T10:37:20;21.89;57.56
68801;SHT31;55784;50.734;7.086;2023-09-19T10:39:50;22.00;56.93
68801;SHT31;55784;50.734;7.086;2023-09-19T10:42:19;22.46;56.18
68801;SHT31;55784;50.734;7.086;2023-09-19T10:44:45;22.84;54.98
68801;SHT31;55784;50.734;7.086;2023-09-19T10:47:14;23.14;54.47
68801;SHT31;55784;50.734;7.086;2023-09-19T10:49:44;23.28;53.79
68801;SHT31;55784;50.734;7.086;2023-09-19T10:52:15;23.39;53.83
68801;SHT31;55784;50.734;7.086;2023-09-19T10:54:49;23.44;53.46
68801;SHT31;55784;50.734;7.086;2023-09-19T10:57:23;23.51;53.17
68801;SHT31;55784;50.734;7.086;2023-09-19T11:00:04;23.35;52.61
68801;SHT31;55784;50.734;7.086;2023-09-19T11:03:16;23.25;53.01
68801;SHT31;55784;50.734;7.086;2023-09-19T11:06:13;23.15;52.79
68801;SHT31;55784;50.734;7.086;2023-09-19T11:08:51;22.91;52.79
68801;SHT31;55784;50.734;7.086;2023-09-19T11:14:29;23.10;52.89
68801;SHT31;55784;50.734;7.086;2023-09-19T11:30:34;22.83;52.65
68801;SHT31;55784;50.734;7.086;2023-09-19T11:36:05;22.49;52.79
68801;SHT31;55784;50.734;7.086;2023-09-19T11:49:17;22.50;53.04
68801;SHT31;55784;50.734;7.086;2023-09-19T11:51:46;22.59;52.44
68801;SHT31;55784;50.734;7.086;2023-09-19T11:54:16;22.56;52.72
68801;SHT31;55784;50.734;7.086;2023-09-19T11:56:45;22.64;52.30
68801;SHT31;55784;50.734;7.086;2023-09-19T11:59:11;22.47;53.01
68801;SHT31;55784;50.734;7.086;2023-09-19T12:01:38;22.44;52.95
68801;SHT31;55784;50.734;7.086;2023-09-19T12:04:11;22.37;52.36
68801;SHT31;55784;50.734;7.086;2023-09-19T12:06:37;22.50;52.29
68801;SHT31;55784;50.734;7.086;2023-09-19T12:09:12;22.59;52.28
68801;SHT31;55784;50.734;7.086;2023-09-19T12:11:42;22.51;52.85
68801;SHT31;55784;50.734;7.086;2023-09-19T12:14:09;22.47;53.24
68801;SHT31;55784;50.734;7.086;2023-09-19T12:16:34;22.37;53.03
68801;SHT31;55784;50.734;7.086;2023-09-19T12:19:18;22.46;53.45
68801;SHT31;55784;50.734;7.086;2023-09-19T12:21:54;22.43;53.22
68801;SHT31;55784;50.734;7.086;2023-09-19T12:24:19;22.51;52.95
68801;SHT31;55784;50.734;7.086;2023-09-19T12:26:46;22.30;53.33
68801;SHT31;55784;50.734;7.086;2023-09-19T12:29:19;22.03;53.24
68801;SHT31;55784;50.734;7.086;2023-09-19T12:31:57;22.23;53.58
68801;SHT31;55784;50.734;7.086;2023-09-19T12:34:25;22.26;53.34
68801;SHT31;55784;50.734;7.086;2023-09-19T12:37:11;22.30;53.73
68801;SHT31;55784;50.734;7.086;2023-09-19T12:39:45;22.44;53.72
68801;SHT31;55784;50.734;7.086;2023-09-19T12:42:26;22.49;53.82
68801;SHT31;55784;50.734;7.086;2023-09-19T12:44:58;22.35;53.33
68801;SHT31;55784;50.734;7.086;2023-09-19T12:47:26;22.47;53.55
68801;SHT31;55784;50.734;7.086;2023-09-19T12:50:05;22.44;53.70
68801;SHT31;55784;50.734;7.086;2023-09-19T12:52:48;22.43;53.25
68801;SHT31;55784;50.734;7.086;2023-09-19T12:55:20;22.49;53.48
68801;SHT31;55784;50.734;7.086;2023-09-19T12:58:09;22.39;53.43
68801;SHT31;55784;50.734;7.086;2023-09-19T13:00:39;22.46;53.99
68801;SHT31;55784;50.734;7.086;2023-09-19T13:06:02;22.49;53.73
68801;SHT31;55784;50.734;7.086;2023-09-19T13:08:34;22.56;53.58
68801;SHT31;55784;50.734;7.086;2023-09-19T13:11:16;22.63;53.74
68801;SHT31;55784;50.734;7.086;2023-09-19T13:13:48;22.64;53.57
68801;SHT31;55784;50.734;7.086;2023-09-19T13:16:15;22.63;53.26
68801;SHT31;55784;50.734;7.086;2023-09-19T13:18:55;22.61;53.29
68801;SHT31;55784;50.734;7.086;2023-09-19T13:21:31;22.47;54.21
68801;SHT31;55784;50.734;7.086;2023-09-19T13:24:21;22.43;53.88
68801;SHT31;55784;50.734;7.086;2023-09-19T13:26:48;22.47;53.58
68801;SHT31;55784;50.734;7.086;2023-09-19T13:29:14;22.51;53.89
68801;SHT31;55784;50.734;7.086;2023-09-19T13:31:48;22.40;53.70
68801;SHT31;55784;50.734;7.086;2023-09-19T13:34:14;22.28;54.11
68801;SHT31;55784;50.734;7.086;2023-09-19T13:36:41;22.24;54.86
68801;SHT31;55784;50.734;7.086;2023-09-19T13:39:07;22.21;55.10
68801;SHT31;55784;50.734;7.086;2023-09-19T13:41:34;22.17;55.39
68801;SHT31;55784;50.734;7.086;2023-09-19T13:44:04;22.20;55.85
68801;SHT31;55784;50.734;7.086;2023-09-19T13:46:30;22.19;55.66
68801;SHT31;55784;50.734;7.086;2023-09-19T13:48:58;22.26;55.58
68801;SHT31;55784;50.734;7.086;2023-09-19T13:51:26;22.47;55.04
68801;SHT31;55784;50.734;7.086;2023-09-19T13:53:51;22.56;55.17
68801;SHT31;55784;50.734;7.086;2023-09-19T13:56:17;22.77;54.76
68801;SHT31;55784;50.734;7.086;2023-09-19T13:58:42;22.88;54.70
68801;SHT31;55784;50.734;7.086;2023-09-19T14:01:08;22.83;54.18
68801;SHT31;55784;50.734;7.086;2023-09-19T14:03:38;22.71;54.26
68801;SHT31;55784;50.734;7.086;2023-09-19T14:06:04;22.80;53.91
68801;SHT31;55784;50.734;7.086;2023-09-19T14:08:30;22.81;53.98
68801;SHT31;55784;50.734;7.086;2023-09-19T14:10:55;22.92;53.66
68801;SHT31;55784;50.734;7.086;2023-09-19T14:13:21;23.01;54.10
68801;SHT31;55784;50.734;7.086;2023-09-19T14:15:46;22.94;53.86
68801;SHT31;55784;50.734;7.086;2023-09-19T14:18:12;22.91;53.80
68801;SHT31;55784;50.734;7.086;2023-09-19T14:20:38;22.88;53.95
68801;SHT31;55784;50.734;7.086;2023-09-19T14:23:05;23.00;54.23
68801;SHT31;55784;50.734;7.086;2023-09-19T14:25:34;23.12;53.52
68801;SHT31;55784;50.734;7.086;2023-09-19T14:27:59;22.97;54.09
68801;SHT31;55784;50.734;7.086;2023-09-19T14:30:25;23.02;53.51
68801;SHT31;55784;50.734;7.086;2023-09-19T14:32:50;23.01;53.77
68801;SHT31;55784;50.734;7.086;2023-09-19T14:35:16;22.98;53.86
68801;SHT31;55784;50.734;7.086;2023-09-19T14:37:41;23.19;53.35
68801;SHT31;55784;50.734;7.086;2023-09-19T14:40:07;23.38;52.69
68801;SHT31;55784;50.734;7.086;2023-09-19T14:42:40;23.53;53.01
68801;SHT31;55784;50.734;7.086;2023-09-19T14:45:06;23.53;52.54
68801;SHT31;55784;50.734;7.086;2023-09-19T14:47:32;23.70;52.17
68801;SHT31;55784;50.734;7.086;2023-09-19T14:50:02;23.93;51.78
68801;SHT31;55784;50.734;7.086;2023-09-19T14:52:32;23.73;51.65
68801;SHT31;55784;50.734;7.086;2023-09-19T14:54:58;23.75;51.62
68801;SHT31;55784;50.734;7.086;2023-09-19T14:57:24;23.51;52.86
68801;SHT31;55784;50.734;7.086;2023-09-19T14:59:50;23.19;51.95
68801;SHT31;55784;50.734;7.086;2023-09-19T15:02:15;23.18;52.71
68801;SHT31;55784;50.734;7.086;2023-09-19T15:04:42;23.53;53.07
68801;SHT31;55784;50.734;7.086;2023-09-19T15:07:09;23.70;52.56
68801;SHT31;55784;50.734;7.086;2023-09-19T15:09:35;23.63;52.33
68801;SHT31;55784;50.734;7.086;2023-09-19T15:12:01;23.39;52.61
68801;SHT31;55784;50.734;7.086;2023-09-19T15:14:26;23.63;52.51
68801;SHT31;55784;50.734;7.086;2023-09-19T15:16:52;23.63;52.27
68801;SHT31;55784;50.734;7.086;2023-09-19T15:19:17;23.79;52.17
68801;SHT31;55784;50.734;7.086;2023-09-19T15:21:44;23.96;51.37
68801;SHT31;55784;50.734;7.086;2023-09-19T15:24:09;23.93;51.76
68801;SHT31;55784;50.734;7.086;2023-09-19T15:26:35;23.87;52.25
68801;SHT31;55784;50.734;7.086;2023-09-19T15:29:07;23.90;51.77
68801;SHT31;55784;50.734;7.086;2023-09-19T15:31:33;23.48;52.12
68801;SHT31;55784;50.734;7.086;2023-09-19T15:33:58;23.70;52.10
68801;SHT31;55784;50.734;7.086;2023-09-19T15:36:23;23.82;52.21
68801;SHT31;55784;50.734;7.086;2023-09-19T15:39:03;23.70;52.29
68801;SHT31;55784;50.734;7.086;2023-09-19T15:41:32;23.56;52.82
68801;SHT31;55784;50.734;7.086;2023-09-19T15:43:59;23.72;52.39
68801;SHT31;55784;50.734;7.086;2023-09-19T15:46:26;23.53;52.78
68801;SHT31;55784;50.734;7.086;2023-09-19T15:48:55;23.53;53.33
68801;SHT31;55784;50.734;7.086;2023-09-19T15:51:20;23.35;53.74
68801;SHT31;55784;50.734;7.086;2023-09-19T15:53:46;23.41;53.96
68801;SHT31;55784;50.734;7.086;2023-09-19T15:56:13;23.48;53.83
68801;SHT31;55784;50.734;7.086;2023-09-19T15:58:47;23.39;54.28
68801;SHT31;55784;50.734;7.086;2023-09-19T16:01:13;23.26;54.27
68801;SHT31;55784;50.734;7.086;2023-09-19T16:03:42;23.28;54.03
68801;SHT31;55784;50.734;7.086;2023-09-19T16:06:12;23.32;54.01
68801;SHT31;55784;50.734;7.086;2023-09-19T16:08:42;23.29;54.23
68801;SHT31;55784;50.734;7.086;2023-09-19T16:11:09;23.18;55.33
68801;SHT31;55784;50.734;7.086;2023-09-19T16:13:36;23.01;54.84
68801;SHT31;55784;50.734;7.086;2023-09-19T16:16:01;23.01;54.72
68801;SHT31;55784;50.734;7.086;2023-09-19T16:18:26;23.00;55.00
68801;SHT31;55784;50.734;7.086;2023-09-19T16:20:51;22.94;55.27
68801;SHT31;55784;50.734;7.086;2023-09-19T16:23:17;22.88;55.05
68801;SHT31;55784;50.734;7.086;2023-09-19T16:25:43;22.92;55.36